sensor_id;sensor_type;location;lat;lon;timestamp;P1;durP1;ratioP1;P2;durP2;ratioP2
36195;SDS011;22237;51.974;4.616;2023-09-18T00:01:46;20.93;;;11.60;;
36195;SDS011;22237;51.974;4.616;2023-09-18T00:04:11;22.57;;;11.60;;
36195;SDS011;22237;51.974;4.616;2023-09-18T00:06:37;23.20;;;11.77;;
36195;SDS011;22237;51.974;4.616;2023-09-18T00:09:02;25.43;;;10.57;;
36195;SDS011;22237;51.974;4.616;2023-09-18T00:11:27;23.80;;;11.05;;
36195;SDS011;22237;51.974;4.616;2023-09-18T00:13:52;25.08;;;11.73;;
36195;SDS011;22237;51.974;4.616;2023-09-18T00:16:18;25.30;;;11.17;;
36195;SDS011;22237;51.974;4.616;2023-09-18T00:18:43;24.33;;;11.45;;
36195;SDS011;22237;51.974;4.616;2023-09-18T00:21:09;19.48;;;10.77;;
36195;SDS011;22237;51.974;4.616;2023-09-18T00:23:35;21.90;;;10.85;;
36195;SDS011;22237;51.974;4.616;2023-09-18T00:26:00;18.67;;;11.00;;
36195;SDS011;22237;51.974;4.616;2023-09-18T00:28:26;19.00;;;11.20;;
36195;SDS011;22237;51.974;4.616;2023-09-18T00:30:51;20.73;;;9.70;;
36195;SDS011;22237;51.974;4.616;2023-09-18T00:33:16;15.77;;;10.23;;
36195;SDS011;22237;51.974;4.616;2023-09-18T00:35:47;21.00;;;10.45;;
36195;SDS011;22237;51.974;4.616;2023-09-18T00:38:12;24.00;;;10.88;;
36195;SDS011;22237;51.974;4.616;2023-09-18T00:40:38;20.27;;;10.10;;
36195;SDS011;22237;51.974;4.616;2023-09-18T00:43:03;17.97;;;9.83;;
36195;SDS011;22237;51.974;4.616;2023-09-18T00:45:28;19.73;;;10.90;;
36195;SDS011;22237;51.974;4.616;2023-09-18T00:47:54;22.70;;;10.93;;
36195;SDS011;22237;51.974;4.616;2023-09-18T00:50:19;21.17;;;10.95;;
36195;SDS011;22237;51.974;4.616;2023-09-18T00:52:46;20.30;;;10.88;;
36195;SDS011;22237;51.974;4.616;2023-09-18T00:55:12;23.52;;;11.38;;
36195;SDS011;22237;51.974;4.616;2023-09-18T00:57:38;18.58;;;10.80;;
36195;SDS011;22237;51.974;4.616;2023-09-18T01:00:03;19.43;;;11.10;;
36195;SDS011;22237;51.974;4.616;2023-09-18T01:02:31;18.27;;;9.77;;
36195;SDS011;22237;51.974;4.616;2023-09-18T01:04:57;21.73;;;11.90;;
36195;SDS011;22237;51.974;4.616;2023-09-18T01:07:22;25.63;;;12.10;;
36195;SDS011;22237;51.974;4.616;2023-09-18T01:09:47;19.70;;;10.10;;
36195;SDS011;22237;51.974;4.616;2023-09-18T01:17:48;18.42;;;11.15;;
36195;SDS011;22237;51.974;4.616;2023-09-18T01:20:13;21.13;;;10.63;;
36195;SDS011;22237;51.974;4.616;2023-09-18T01:22:38;20.15;;;10.45;;
36195;SDS011;22237;51.974;4.616;2023-09-18T01:25:04;20.13;;;11.02;;
36195;SDS011;22237;51.974;4.616;2023-09-18T01:27:31;17.65;;;10.43;;
36195;SDS011;22237;51.974;4.616;2023-09-18T01:29:56;22.02;;;11.35;;
36195;SDS011;22237;51.974;4.616;2023-09-18T01:32:23;23.43;;;11.20;;
36195;SDS011;22237;51.974;4.616;2023-09-18T01:34:52;17.88;;;10.82;;
36195;SDS011;22237;51.974;4.616;2023-09-18T01:37:19;18.67;;;11.00;;
36195;SDS011;22237;51.974;4.616;2023-09-18T01:39:46;18.02;;;10.77;;
36195;SDS011;22237;51.974;4.616;2023-09-18T01:42:12;23.05;;;11.82;;
36195;SDS011;22237;51.974;4.616;2023-09-18T01:44:38;18.70;;;10.80;;
36195;SDS011;22237;51.974;4.616;2023-09-18T01:47:04;23.85;;;11.23;;
36195;SDS011;22237;51.974;4.616;2023-09-18T01:49:30;17.80;;;10.82;;
36195;SDS011;22237;51.974;4.616;2023-09-18T01:51:56;18.58;;;9.65;;
36195;SDS011;22237;51.974;4.616;2023-09-18T01:54:21;19.58;;;10.95;;
36195;SDS011;22237;51.974;4.616;2023-09-18T01:56:46;23.33;;;10.75;;
36195;SDS011;22237;51.974;4.616;2023-09-18T01:59:12;22.30;;;11.00;;
36195;SDS011;22237;51.974;4.616;2023-09-18T02:01:37;22.73;;;10.93;;
36195;SDS011;22237;51.974;4.616;2023-09-18T02:04:03;22.40;;;10.55;;
36195;SDS011;22237;51.974;4.616;2023-09-18T02:06:28;19.17;;;11.13;;
36195;SDS011;22237;51.974;4.616;2023-09-18T02:08:54;21.80;;;10.97;;
36195;SDS011;22237;51.974;4.616;2023-09-18T02:11:20;14.57;;;9.52;;
36195;SDS011;22237;51.974;4.616;2023-09-18T02:13:45;18.52;;;10.55;;
36195;SDS011;22237;51.974;4.616;2023-09-18T02:16:11;21.30;;;11.10;;
36195;SDS011;22237;51.974;4.616;2023-09-18T02:18:36;16.27;;;9.53;;
36195;SDS011;22237;51.974;4.616;2023-09-18T02:21:01;19.73;;;10.97;;
36195;SDS011;22237;51.974;4.616;2023-09-18T02:23:26;18.67;;;10.03;;
36195;SDS011;22237;51.974;4.616;2023-09-18T02:25:55;28.17;;;10.43;;
36195;SDS011;22237;51.974;4.616;2023-09-18T02:28:20;17.00;;;10.45;;
36195;SDS011;22237;51.974;4.616;2023-09-18T02:30:46;17.05;;;10.10;;
36195;SDS011;22237;51.974;4.616;2023-09-18T02:33:11;18.73;;;8.63;;
36195;SDS011;22237;51.974;4.616;2023-09-18T02:35:36;18.93;;;9.87;;
36195;SDS011;22237;51.974;4.616;2023-09-18T02:38:01;18.08;;;9.90;;
36195;SDS011;22237;51.974;4.616;2023-09-18T02:40:27;18.45;;;9.40;;
36195;SDS011;22237;51.974;4.616;2023-09-18T02:42:52;22.67;;;10.23;;
36195;SDS011;22237;51.974;4.616;2023-09-18T02:45:18;16.03;;;9.67;;
36195;SDS011;22237;51.974;4.616;2023-09-18T02:47:43;18.33;;;9.87;;
36195;SDS011;22237;51.974;4.616;2023-09-18T02:50:08;17.60;;;9.47;;
36195;SDS011;22237;51.974;4.616;2023-09-18T02:52:35;13.48;;;8.27;;
36195;SDS011;22237;51.974;4.616;2023-09-18T02:55:01;20.25;;;9.73;;
36195;SDS011;22237;51.974;4.616;2023-09-18T02:57:27;16.45;;;9.82;;
36195;SDS011;22237;51.974;4.616;2023-09-18T02:59:52;15.97;;;9.70;;
36195;SDS011;22237;51.974;4.616;2023-09-18T03:02:17;17.60;;;8.87;;
36195;SDS011;22237;51.974;4.616;2023-09-18T03:04:42;16.50;;;8.95;;
36195;SDS011;22237;51.974;4.616;2023-09-18T03:07:08;15.93;;;9.10;;
36195;SDS011;22237;51.974;4.616;2023-09-18T03:09:33;18.30;;;8.93;;
36195;SDS011;22237;51.974;4.616;2023-09-18T03:11:58;19.20;;;9.47;;
36195;SDS011;22237;51.974;4.616;2023-09-18T03:14:23;15.87;;;8.63;;
36195;SDS011;22237;51.974;4.616;2023-09-18T03:16:48;17.67;;;9.23;;
36195;SDS011;22237;51.974;4.616;2023-09-18T03:19:15;17.55;;;8.57;;
36195;SDS011;22237;51.974;4.616;2023-09-18T03:21:40;16.77;;;9.45;;
36195;SDS011;22237;51.974;4.616;2023-09-18T03:24:05;16.97;;;9.53;;
36195;SDS011;22237;51.974;4.616;2023-09-18T03:26:31;17.98;;;9.45;;
36195;SDS011;22237;51.974;4.616;2023-09-18T03:28:56;18.50;;;10.55;;
36195;SDS011;22237;51.974;4.616;2023-09-18T03:31:21;20.97;;;9.00;;
36195;SDS011;22237;51.974;4.616;2023-09-18T03:33:46;25.87;;;8.77;;
36195;SDS011;22237;51.974;4.616;2023-09-18T03:36:12;18.47;;;7.40;;
36195;SDS011;22237;51.974;4.616;2023-09-18T03:38:38;12.98;;;7.82;;
36195;SDS011;22237;51.974;4.616;2023-09-18T03:41:03;19.07;;;7.90;;
36195;SDS011;22237;51.974;4.616;2023-09-18T03:43:29;11.68;;;7.97;;
36195;SDS011;22237;51.974;4.616;2023-09-18T03:45:54;12.13;;;6.83;;
36195;SDS011;22237;51.974;4.616;2023-09-18T03:48:19;11.60;;;7.07;;
36195;SDS011;22237;51.974;4.616;2023-09-18T03:50:46;10.40;;;5.72;;
36195;SDS011;22237;51.974;4.616;2023-09-18T03:53:12;11.68;;;6.63;;
36195;SDS011;22237;51.974;4.616;2023-09-18T03:55:37;12.63;;;5.87;;
36195;SDS011;22237;51.974;4.616;2023-09-18T03:58:02;13.43;;;5.97;;
36195;SDS011;22237;51.974;4.616;2023-09-18T04:00:30;9.63;;;5.28;;
36195;SDS011;22237;51.974;4.616;2023-09-18T04:02:55;10.45;;;5.50;;
36195;SDS011;22237;51.974;4.616;2023-09-18T04:05:20;8.15;;;4.65;;
36195;SDS011;22237;51.974;4.616;2023-09-18T04:07:45;7.22;;;4.75;;
36195;SDS011;22237;51.974;4.616;2023-09-18T04:10:11;9.88;;;4.18;;
36195;SDS011;22237;51.974;4.616;2023-09-18T04:12:42;8.82;;;4.07;;
36195;SDS011;22237;51.974;4.616;2023-09-18T04:15:08;10.33;;;4.80;;
36195;SDS011;22237;51.974;4.616;2023-09-18T04:17:33;12.60;;;4.45;;
36195;SDS011;22237;51.974;4.616;2023-09-18T04:19:58;8.03;;;4.13;;
36195;SDS011;22237;51.974;4.616;2023-09-18T04:22:23;7.60;;;4.53;;
36195;SDS011;22237;51.974;4.616;2023-09-18T04:24:49;8.33;;;4.17;;
36195;SDS011;22237;51.974;4.616;2023-09-18T04:27:14;10.97;;;4.67;;
36195;SDS011;22237;51.974;4.616;2023-09-18T04:29:39;7.70;;;4.68;;
36195;SDS011;22237;51.974;4.616;2023-09-18T04:32:05;10.00;;;4.80;;
36195;SDS011;22237;51.974;4.616;2023-09-18T04:34:31;9.32;;;4.60;;
36195;SDS011;22237;51.974;4.616;2023-09-18T04:36:56;7.00;;;4.00;;
36195;SDS011;22237;51.974;4.616;2023-09-18T04:39:21;10.17;;;4.70;;
36195;SDS011;22237;51.974;4.616;2023-09-18T04:41:47;8.73;;;4.65;;
36195;SDS011;22237;51.974;4.616;2023-09-18T04:44:12;9.60;;;4.20;;
36195;SDS011;22237;51.974;4.616;2023-09-18T04:46:39;12.63;;;4.63;;
36195;SDS011;22237;51.974;4.616;2023-09-18T04:49:07;7.55;;;4.40;;
36195;SDS011;22237;51.974;4.616;2023-09-18T04:51:32;9.63;;;4.20;;
36195;SDS011;22237;51.974;4.616;2023-09-18T04:53:58;11.88;;;4.70;;
36195;SDS011;22237;51.974;4.616;2023-09-18T04:56:25;8.23;;;4.95;;
36195;SDS011;22237;51.974;4.616;2023-09-18T04:58:51;7.38;;;4.60;;
36195;SDS011;22237;51.974;4.616;2023-09-18T05:01:16;10.83;;;4.50;;
36195;SDS011;22237;51.974;4.616;2023-09-18T05:03:42;5.65;;;3.65;;
36195;SDS011;22237;51.974;4.616;2023-09-18T05:06:07;6.87;;;3.87;;
36195;SDS011;22237;51.974;4.616;2023-09-18T05:08:33;10.67;;;4.57;;
36195;SDS011;22237;51.974;4.616;2023-09-18T05:10:58;7.93;;;4.30;;
36195;SDS011;22237;51.974;4.616;2023-09-18T05:13:23;6.93;;;3.50;;
36195;SDS011;22237;51.974;4.616;2023-09-18T05:15:48;5.88;;;3.40;;
36195;SDS011;22237;51.974;4.616;2023-09-18T05:18:14;4.87;;;3.93;;
36195;SDS011;22237;51.974;4.616;2023-09-18T05:20:39;7.30;;;3.80;;
36195;SDS011;22237;51.974;4.616;2023-09-18T05:23:04;12.45;;;4.15;;
36195;SDS011;22237;51.974;4.616;2023-09-18T05:25:30;7.90;;;4.78;;
36195;SDS011;22237;51.974;4.616;2023-09-18T05:28:03;8.00;;;4.22;;
36195;SDS011;22237;51.974;4.616;2023-09-18T05:30:30;5.72;;;4.05;;
36195;SDS011;22237;51.974;4.616;2023-09-18T05:32:58;10.98;;;4.80;;
36195;SDS011;22237;51.974;4.616;2023-09-18T05:35:29;7.72;;;4.60;;
36195;SDS011;22237;51.974;4.616;2023-09-18T05:37:54;6.40;;;4.20;;
36195;SDS011;22237;51.974;4.616;2023-09-18T05:40:21;9.10;;;4.75;;
36195;SDS011;22237;51.974;4.616;2023-09-18T05:42:47;8.35;;;4.25;;
36195;SDS011;22237;51.974;4.616;2023-09-18T05:45:12;6.63;;;4.40;;
36195;SDS011;22237;51.974;4.616;2023-09-18T05:47:38;9.45;;;4.60;;
36195;SDS011;22237;51.974;4.616;2023-09-18T05:50:07;6.80;;;4.28;;
36195;SDS011;22237;51.974;4.616;2023-09-18T05:52:33;13.20;;;5.43;;
36195;SDS011;22237;51.974;4.616;2023-09-18T05:54:59;9.05;;;4.60;;
36195;SDS011;22237;51.974;4.616;2023-09-18T05:57:24;10.50;;;4.68;;
36195;SDS011;22237;51.974;4.616;2023-09-18T05:59:49;8.80;;;4.70;;
36195;SDS011;22237;51.974;4.616;2023-09-18T06:02:15;6.88;;;4.63;;
36195;SDS011;22237;51.974;4.616;2023-09-18T06:04:41;7.13;;;4.30;;
36195;SDS011;22237;51.974;4.616;2023-09-18T06:07:07;7.13;;;4.40;;
36195;SDS011;22237;51.974;4.616;2023-09-18T06:09:32;9.00;;;4.60;;
36195;SDS011;22237;51.974;4.616;2023-09-18T06:11:57;10.17;;;4.80;;
36195;SDS011;22237;51.974;4.616;2023-09-18T06:14:24;6.70;;;4.22;;
36195;SDS011;22237;51.974;4.616;2023-09-18T06:16:49;9.88;;;4.72;;
36195;SDS011;22237;51.974;4.616;2023-09-18T06:19:15;7.72;;;4.57;;
36195;SDS011;22237;51.974;4.616;2023-09-18T06:21:42;9.15;;;4.65;;
36195;SDS011;22237;51.974;4.616;2023-09-18T06:24:07;6.70;;;4.13;;
36195;SDS011;22237;51.974;4.616;2023-09-18T06:26:33;12.27;;;4.57;;
36195;SDS011;22237;51.974;4.616;2023-09-18T06:28:58;7.15;;;4.03;;
36195;SDS011;22237;51.974;4.616;2023-09-18T06:31:24;7.67;;;4.60;;
36195;SDS011;22237;51.974;4.616;2023-09-18T06:33:49;10.52;;;4.55;;
36195;SDS011;22237;51.974;4.616;2023-09-18T06:36:14;9.17;;;4.70;;
36195;SDS011;22237;51.974;4.616;2023-09-18T06:38:39;8.60;;;5.00;;
36195;SDS011;22237;51.974;4.616;2023-09-18T06:41:05;6.45;;;3.97;;
36195;SDS011;22237;51.974;4.616;2023-09-18T06:43:30;10.33;;;3.57;;
36195;SDS011;22237;51.974;4.616;2023-09-18T06:45:55;13.23;;;4.17;;
36195;SDS011;22237;51.974;4.616;2023-09-18T06:48:22;7.10;;;3.83;;
36195;SDS011;22237;51.974;4.616;2023-09-18T06:50:48;11.80;;;4.25;;
36195;SDS011;22237;51.974;4.616;2023-09-18T06:53:13;9.50;;;4.23;;
36195;SDS011;22237;51.974;4.616;2023-09-18T06:55:38;5.97;;;3.85;;
36195;SDS011;22237;51.974;4.616;2023-09-18T06:58:03;5.60;;;3.60;;
36195;SDS011;22237;51.974;4.616;2023-09-18T07:00:29;5.63;;;3.45;;
36195;SDS011;22237;51.974;4.616;2023-09-18T07:02:55;12.52;;;3.35;;
36195;SDS011;22237;51.974;4.616;2023-09-18T07:05:20;8.77;;;3.03;;
36195;SDS011;22237;51.974;4.616;2023-09-18T07:07:45;6.27;;;3.37;;
36195;SDS011;22237;51.974;4.616;2023-09-18T07:10:11;6.83;;;3.00;;
36195;SDS011;22237;51.974;4.616;2023-09-18T07:12:37;5.35;;;3.08;;
36195;SDS011;22237;51.974;4.616;2023-09-18T07:15:02;5.07;;;2.75;;
36195;SDS011;22237;51.974;4.616;2023-09-18T07:17:31;6.47;;;3.00;;
36195;SDS011;22237;51.974;4.616;2023-09-18T07:19:56;4.57;;;2.58;;
36195;SDS011;22237;51.974;4.616;2023-09-18T07:22:21;5.10;;;2.70;;
36195;SDS011;22237;51.974;4.616;2023-09-18T07:24:47;11.03;;;2.97;;
36195;SDS011;22237;51.974;4.616;2023-09-18T07:27:12;3.83;;;2.70;;
36195;SDS011;22237;51.974;4.616;2023-09-18T07:29:38;8.77;;;2.72;;
36195;SDS011;22237;51.974;4.616;2023-09-18T07:32:04;4.70;;;2.92;;
36195;SDS011;22237;51.974;4.616;2023-09-18T07:34:29;4.65;;;3.10;;
36195;SDS011;22237;51.974;4.616;2023-09-18T07:36:54;4.68;;;2.47;;
36195;SDS011;22237;51.974;4.616;2023-09-18T07:39:21;5.20;;;2.92;;
36195;SDS011;22237;51.974;4.616;2023-09-18T07:41:49;5.55;;;2.67;;
36195;SDS011;22237;51.974;4.616;2023-09-18T07:44:21;6.03;;;3.22;;
36195;SDS011;22237;51.974;4.616;2023-09-18T07:46:46;7.45;;;3.13;;
36195;SDS011;22237;51.974;4.616;2023-09-18T07:49:11;3.67;;;2.70;;
36195;SDS011;22237;51.974;4.616;2023-09-18T07:51:37;3.03;;;2.40;;
36195;SDS011;22237;51.974;4.616;2023-09-18T07:54:02;6.18;;;2.60;;
36195;SDS011;22237;51.974;4.616;2023-09-18T07:56:28;5.72;;;2.80;;
36195;SDS011;22237;51.974;4.616;2023-09-18T07:58:56;5.25;;;2.63;;
36195;SDS011;22237;51.974;4.616;2023-09-18T08:01:21;9.07;;;3.10;;
36195;SDS011;22237;51.974;4.616;2023-09-18T08:03:47;5.18;;;2.72;;
36195;SDS011;22237;51.974;4.616;2023-09-18T08:06:12;5.18;;;3.13;;
36195;SDS011;22237;51.974;4.616;2023-09-18T08:08:39;4.55;;;2.80;;
36195;SDS011;22237;51.974;4.616;2023-09-18T08:11:08;8.37;;;3.13;;
36195;SDS011;22237;51.974;4.616;2023-09-18T08:13:35;4.68;;;3.35;;
36195;SDS011;22237;51.974;4.616;2023-09-18T08:16:01;5.45;;;3.55;;
36195;SDS011;22237;51.974;4.616;2023-09-18T08:18:26;6.63;;;3.35;;
36195;SDS011;22237;51.974;4.616;2023-09-18T08:20:52;6.63;;;3.88;;
36195;SDS011;22237;51.974;4.616;2023-09-18T08:23:18;5.57;;;3.70;;
36195;SDS011;22237;51.974;4.616;2023-09-18T08:25:43;6.73;;;4.23;;
36195;SDS011;22237;51.974;4.616;2023-09-18T08:28:09;7.83;;;3.90;;
36195;SDS011;22237;51.974;4.616;2023-09-18T08:30:34;8.13;;;3.95;;
36195;SDS011;22237;51.974;4.616;2023-09-18T08:33:00;5.95;;;3.80;;
36195;SDS011;22237;51.974;4.616;2023-09-18T08:35:25;5.03;;;3.67;;
36195;SDS011;22237;51.974;4.616;2023-09-18T08:37:54;5.93;;;4.03;;
36195;SDS011;22237;51.974;4.616;2023-09-18T08:40:19;3.28;;;2.92;;
36195;SDS011;22237;51.974;4.616;2023-09-18T08:42:47;5.13;;;3.80;;
36195;SDS011;22237;51.974;4.616;2023-09-18T08:45:18;9.68;;;3.30;;
36195;SDS011;22237;51.974;4.616;2023-09-18T08:47:44;6.53;;;3.40;;
36195;SDS011;22237;51.974;4.616;2023-09-18T08:50:10;6.95;;;3.13;;
36195;SDS011;22237;51.974;4.616;2023-09-18T08:52:35;5.45;;;3.50;;
36195;SDS011;22237;51.974;4.616;2023-09-18T08:55:01;11.00;;;3.30;;
36195;SDS011;22237;51.974;4.616;2023-09-18T08:57:27;4.78;;;3.08;;
36195;SDS011;22237;51.974;4.616;2023-09-18T08:59:55;4.38;;;2.80;;
36195;SDS011;22237;51.974;4.616;2023-09-18T09:02:20;8.93;;;3.28;;
36195;SDS011;22237;51.974;4.616;2023-09-18T09:04:46;3.93;;;2.80;;
36195;SDS011;22237;51.974;4.616;2023-09-18T09:07:11;3.70;;;3.05;;
36195;SDS011;22237;51.974;4.616;2023-09-18T09:09:36;5.73;;;2.77;;
36195;SDS011;22237;51.974;4.616;2023-09-18T09:12:02;3.92;;;2.63;;
36195;SDS011;22237;51.974;4.616;2023-09-18T09:14:27;6.45;;;3.05;;
36195;SDS011;22237;51.974;4.616;2023-09-18T09:16:53;7.05;;;3.35;;
36195;SDS011;22237;51.974;4.616;2023-09-18T09:19:19;4.10;;;2.38;;
36195;SDS011;22237;51.974;4.616;2023-09-18T09:21:52;2.42;;;2.20;;
36195;SDS011;22237;51.974;4.616;2023-09-18T09:24:19;3.88;;;2.55;;
36195;SDS011;22237;51.974;4.616;2023-09-18T09:27:00;4.85;;;2.20;;
36195;SDS011;22237;51.974;4.616;2023-09-18T09:29:25;2.33;;;2.10;;
36195;SDS011;22237;51.974;4.616;2023-09-18T09:31:50;7.47;;;2.40;;
36195;SDS011;22237;51.974;4.616;2023-09-18T09:34:34;4.67;;;2.40;;
36195;SDS011;22237;51.974;4.616;2023-09-18T09:37:02;3.35;;;2.55;;
36195;SDS011;22237;51.974;4.616;2023-09-18T09:39:29;3.03;;;2.38;;
36195;SDS011;22237;51.974;4.616;2023-09-18T09:41:55;4.72;;;2.13;;
36195;SDS011;22237;51.974;4.616;2023-09-18T09:44:24;4.68;;;2.83;;
36195;SDS011;22237;51.974;4.616;2023-09-18T09:46:50;6.90;;;3.03;;
36195;SDS011;22237;51.974;4.616;2023-09-18T09:49:16;11.23;;;2.75;;
36195;SDS011;22237;51.974;4.616;2023-09-18T09:51:42;5.15;;;2.90;;
36195;SDS011;22237;51.974;4.616;2023-09-18T09:54:08;3.65;;;2.70;;
36195;SDS011;22237;51.974;4.616;2023-09-18T09:56:40;6.65;;;2.70;;
36195;SDS011;22237;51.974;4.616;2023-09-18T09:59:05;6.45;;;3.00;;
36195;SDS011;22237;51.974;4.616;2023-09-18T10:01:35;4.28;;;3.03;;
36195;SDS011;22237;51.974;4.616;2023-09-18T10:04:04;7.30;;;3.38;;
36195;SDS011;22237;51.974;4.616;2023-09-18T10:06:32;5.57;;;3.17;;
36195;SDS011;22237;51.974;4.616;2023-09-18T10:08:58;8.38;;;3.05;;
36195;SDS011;22237;51.974;4.616;2023-09-18T10:11:24;2.70;;;2.45;;
36195;SDS011;22237;51.974;4.616;2023-09-18T10:13:55;6.22;;;2.47;;
36195;SDS011;22237;51.974;4.616;2023-09-18T10:16:23;6.78;;;2.92;;
36195;SDS011;22237;51.974;4.616;2023-09-18T10:24:32;3.88;;;2.25;;
36195;SDS011;22237;51.974;4.616;2023-09-18T10:26:58;4.72;;;2.80;;
36195;SDS011;22237;51.974;4.616;2023-09-18T10:29:27;5.30;;;2.72;;
36195;SDS011;22237;51.974;4.616;2023-09-18T10:31:53;6.10;;;2.53;;
36195;SDS011;22237;51.974;4.616;2023-09-18T10:34:19;5.07;;;2.50;;
36195;SDS011;22237;51.974;4.616;2023-09-18T10:36:46;3.30;;;2.40;;
36195;SDS011;22237;51.974;4.616;2023-09-18T10:39:11;4.70;;;2.20;;
36195;SDS011;22237;51.974;4.616;2023-09-18T10:41:38;5.55;;;2.60;;
36195;SDS011;22237;51.974;4.616;2023-09-18T10:44:03;4.72;;;2.42;;
36195;SDS011;22237;51.974;4.616;2023-09-18T10:46:29;5.35;;;2.50;;
36195;SDS011;22237;51.974;4.616;2023-09-18T10:48:54;3.40;;;2.30;;
36195;SDS011;22237;51.974;4.616;2023-09-18T10:51:21;6.47;;;2.50;;
36195;SDS011;22237;51.974;4.616;2023-09-18T10:53:47;2.00;;;1.80;;
36195;SDS011;22237;51.974;4.616;2023-09-18T10:56:14;5.57;;;2.65;;
36195;SDS011;22237;51.974;4.616;2023-09-18T10:58:40;5.72;;;2.65;;
36195;SDS011;22237;51.974;4.616;2023-09-18T11:01:06;3.40;;;2.35;;
36195;SDS011;22237;51.974;4.616;2023-09-18T11:03:33;5.05;;;2.55;;
36195;SDS011;22237;51.974;4.616;2023-09-18T11:06:08;2.58;;;2.35;;
36195;SDS011;22237;51.974;4.616;2023-09-18T11:08:45;4.07;;;2.63;;
36195;SDS011;22237;51.974;4.616;2023-09-18T11:11:11;6.78;;;2.58;;
36195;SDS011;22237;51.974;4.616;2023-09-18T11:13:46;2.63;;;2.30;;
36195;SDS011;22237;51.974;4.616;2023-09-18T11:18:45;3.50;;;2.80;;
36195;SDS011;22237;51.974;4.616;2023-09-18T11:21:11;6.07;;;2.85;;
36195;SDS011;22237;51.974;4.616;2023-09-18T11:23:37;3.70;;;2.92;;
36195;SDS011;22237;51.974;4.616;2023-09-18T11:26:09;7.13;;;2.38;;
36195;SDS011;22237;51.974;4.616;2023-09-18T11:28:35;2.58;;;2.05;;
36195;SDS011;22237;51.974;4.616;2023-09-18T11:31:00;4.97;;;2.65;;
36195;SDS011;22237;51.974;4.616;2023-09-18T11:33:39;4.63;;;2.70;;
36195;SDS011;22237;51.974;4.616;2023-09-18T11:38:31;5.20;;;2.85;;
36195;SDS011;22237;51.974;4.616;2023-09-18T11:40:58;3.85;;;2.47;;
36195;SDS011;22237;51.974;4.616;2023-09-18T11:43:25;3.25;;;2.30;;
36195;SDS011;22237;51.974;4.616;2023-09-18T11:45:53;5.80;;;2.92;;
36195;SDS011;22237;51.974;4.616;2023-09-18T11:48:20;4.25;;;2.30;;
36195;SDS011;22237;51.974;4.616;2023-09-18T11:50:46;4.40;;;2.63;;
36195;SDS011;22237;51.974;4.616;2023-09-18T11:53:14;4.68;;;2.47;;
36195;SDS011;22237;51.974;4.616;2023-09-18T11:55:39;2.80;;;2.15;;
36195;SDS011;22237;51.974;4.616;2023-09-18T11:58:04;6.03;;;2.30;;
36195;SDS011;22237;51.974;4.616;2023-09-18T12:00:30;6.25;;;2.88;;
36195;SDS011;22237;51.974;4.616;2023-09-18T12:02:56;10.88;;;2.83;;
36195;SDS011;22237;51.974;4.616;2023-09-18T12:05:23;2.70;;;2.20;;
36195;SDS011;22237;51.974;4.616;2023-09-18T12:07:51;4.00;;;2.25;;
36195;SDS011;22237;51.974;4.616;2023-09-18T12:10:16;4.55;;;2.10;;
36195;SDS011;22237;51.974;4.616;2023-09-18T12:12:42;4.15;;;2.30;;
36195;SDS011;22237;51.974;4.616;2023-09-18T12:15:10;5.95;;;2.40;;
36195;SDS011;22237;51.974;4.616;2023-09-18T12:17:36;6.85;;;2.70;;
36195;SDS011;22237;51.974;4.616;2023-09-18T12:20:01;6.68;;;2.55;;
36195;SDS011;22237;51.974;4.616;2023-09-18T12:22:29;2.88;;;1.92;;
36195;SDS011;22237;51.974;4.616;2023-09-18T12:25:14;3.92;;;2.40;;
36195;SDS011;22237;51.974;4.616;2023-09-18T12:27:40;4.63;;;2.28;;
36195;SDS011;22237;51.974;4.616;2023-09-18T12:30:06;5.40;;;2.63;;
36195;SDS011;22237;51.974;4.616;2023-09-18T12:32:33;2.92;;;2.35;;
36195;SDS011;22237;51.974;4.616;2023-09-18T12:35:00;5.50;;;2.10;;
36195;SDS011;22237;51.974;4.616;2023-09-18T12:37:26;3.03;;;2.30;;
36195;SDS011;22237;51.974;4.616;2023-09-18T12:39:51;3.97;;;2.10;;
36195;SDS011;22237;51.974;4.616;2023-09-18T12:42:18;4.45;;;2.30;;
36195;SDS011;22237;51.974;4.616;2023-09-18T12:44:43;4.80;;;1.95;;
36195;SDS011;22237;51.974;4.616;2023-09-18T12:47:08;3.00;;;1.90;;
36195;SDS011;22237;51.974;4.616;2023-09-18T12:49:33;7.80;;;2.38;;
36195;SDS011;22237;51.974;4.616;2023-09-18T12:51:59;3.63;;;2.10;;
36195;SDS011;22237;51.974;4.616;2023-09-18T12:54:41;6.15;;;2.20;;
36195;SDS011;22237;51.974;4.616;2023-09-18T12:57:07;3.90;;;2.20;;
36195;SDS011;22237;51.974;4.616;2023-09-18T12:59:33;7.00;;;2.20;;
36195;SDS011;22237;51.974;4.616;2023-09-18T13:02:00;5.72;;;2.47;;
36195;SDS011;22237;51.974;4.616;2023-09-18T13:04:25;5.18;;;2.20;;
36195;SDS011;22237;51.974;4.616;2023-09-18T13:10:01;2.08;;;1.88;;
36195;SDS011;22237;51.974;4.616;2023-09-18T13:12:43;2.53;;;1.73;;
36195;SDS011;22237;51.974;4.616;2023-09-18T13:15:10;8.43;;;2.10;;
36195;SDS011;22237;51.974;4.616;2023-09-18T13:17:40;1.58;;;1.48;;
36195;SDS011;22237;51.974;4.616;2023-09-18T13:20:12;6.57;;;1.90;;
36195;SDS011;22237;51.974;4.616;2023-09-18T13:22:38;2.42;;;2.03;;
36195;SDS011;22237;51.974;4.616;2023-09-18T13:25:04;2.47;;;1.75;;
36195;SDS011;22237;51.974;4.616;2023-09-18T13:27:30;3.47;;;1.88;;
36195;SDS011;22237;51.974;4.616;2023-09-18T13:29:55;4.70;;;1.53;;
36195;SDS011;22237;51.974;4.616;2023-09-18T13:32:21;3.75;;;2.00;;
36195;SDS011;22237;51.974;4.616;2023-09-18T13:34:47;3.47;;;1.80;;
36195;SDS011;22237;51.974;4.616;2023-09-18T13:37:13;6.63;;;2.47;;
36195;SDS011;22237;51.974;4.616;2023-09-18T13:39:39;2.90;;;1.58;;
36195;SDS011;22237;51.974;4.616;2023-09-18T13:42:04;2.17;;;1.67;;
36195;SDS011;22237;51.974;4.616;2023-09-18T13:44:29;4.00;;;1.90;;
36195;SDS011;22237;51.974;4.616;2023-09-18T13:46:55;3.70;;;2.10;;
36195;SDS011;22237;51.974;4.616;2023-09-18T13:49:21;4.80;;;2.00;;
36195;SDS011;22237;51.974;4.616;2023-09-18T13:51:47;1.70;;;1.40;;
36195;SDS011;22237;51.974;4.616;2023-09-18T13:54:15;4.20;;;1.45;;
36195;SDS011;22237;51.974;4.616;2023-09-18T13:56:41;6.55;;;1.92;;
36195;SDS011;22237;51.974;4.616;2023-09-18T13:59:06;5.68;;;1.80;;
36195;SDS011;22237;51.974;4.616;2023-09-18T14:01:32;1.38;;;1.20;;
36195;SDS011;22237;51.974;4.616;2023-09-18T14:03:57;7.97;;;1.77;;
36195;SDS011;22237;51.974;4.616;2023-09-18T14:06:22;2.37;;;1.63;;
36195;SDS011;22237;51.974;4.616;2023-09-18T14:08:48;1.50;;;1.38;;
36195;SDS011;22237;51.974;4.616;2023-09-18T14:11:13;1.25;;;1.17;;
36195;SDS011;22237;51.974;4.616;2023-09-18T14:13:38;3.40;;;1.50;;
36195;SDS011;22237;51.974;4.616;2023-09-18T14:16:04;3.60;;;1.83;;
36195;SDS011;22237;51.974;4.616;2023-09-18T14:18:29;3.90;;;1.70;;
36195;SDS011;22237;51.974;4.616;2023-09-18T14:20:54;2.00;;;1.55;;
36195;SDS011;22237;51.974;4.616;2023-09-18T14:23:20;1.83;;;1.73;;
36195;SDS011;22237;51.974;4.616;2023-09-18T14:25:45;2.67;;;2.00;;
36195;SDS011;22237;51.974;4.616;2023-09-18T14:28:10;3.13;;;2.15;;
36195;SDS011;22237;51.974;4.616;2023-09-18T14:30:35;5.82;;;2.28;;
36195;SDS011;22237;51.974;4.616;2023-09-18T14:33:01;2.92;;;2.05;;
36195;SDS011;22237;51.974;4.616;2023-09-18T14:35:26;2.30;;;1.80;;
36195;SDS011;22237;51.974;4.616;2023-09-18T14:37:52;2.80;;;2.35;;
36195;SDS011;22237;51.974;4.616;2023-09-18T14:40:17;3.20;;;2.20;;
36195;SDS011;22237;51.974;4.616;2023-09-18T14:42:42;2.92;;;2.10;;
36195;SDS011;22237;51.974;4.616;2023-09-18T14:45:08;7.53;;;1.50;;
36195;SDS011;22237;51.974;4.616;2023-09-18T14:47:33;2.17;;;1.25;;
36195;SDS011;22237;51.974;4.616;2023-09-18T14:49:59;8.00;;;1.30;;
36195;SDS011;22237;51.974;4.616;2023-09-18T14:52:26;2.47;;;1.00;;
36195;SDS011;22237;51.974;4.616;2023-09-18T14:54:51;1.17;;;0.93;;